sensor_id;sensor_type;location;lat;lon;timestamp;P1;durP1;ratioP1;P2;durP2;ratioP2
36379;SDS011;22411;53.016;18.632;2022-11-21T00:00:23;88.77;;;44.03;;
36379;SDS011;22411;53.016;18.632;2022-11-21T00:03:01;80.70;;;41.43;;
36379;SDS011;22411;53.016;18.632;2022-11-21T00:05:27;79.63;;;40.50;;
36379;SDS011;22411;53.016;18.632;2022-11-21T00:07:55;81.47;;;42.53;;
36379;SDS011;22411;53.016;18.632;2022-11-21T00:10:21;84.53;;;42.43;;
36379;SDS011;22411;53.016;18.632;2022-11-21T00:12:52;79.33;;;40.70;;
36379;SDS011;22411;53.016;18.632;2022-11-21T00:15:23;79.20;;;38.10;;
36379;SDS011;22411;53.016;18.632;2022-11-21T00:17:50;78.87;;;41.27;;
36379;SDS011;22411;53.016;18.632;2022-11-21T00:20:18;78.90;;;39.70;;
36379;SDS011;22411;53.016;18.632;2022-11-21T00:22:47;81.80;;;42.27;;
36379;SDS011;22411;53.016;18.632;2022-11-21T00:25:13;78.17;;;38.63;;
36379;SDS011;22411;53.016;18.632;2022-11-21T00:27:40;77.63;;;40.00;;
36379;SDS011;22411;53.016;18.632;2022-11-21T00:30:07;82.37;;;41.93;;
36379;SDS011;22411;53.016;18.632;2022-11-21T00:32:35;72.47;;;39.57;;
36379;SDS011;22411;53.016;18.632;2022-11-21T00:35:01;84.80;;;41.07;;
36379;SDS011;22411;53.016;18.632;2022-11-21T00:37:27;80.20;;;39.37;;
36379;SDS011;22411;53.016;18.632;2022-11-21T00:39:53;80.97;;;40.77;;
36379;SDS011;22411;53.016;18.632;2022-11-21T00:42:19;88.57;;;42.73;;
36379;SDS011;22411;53.016;18.632;2022-11-21T00:44:45;81.30;;;40.93;;
36379;SDS011;22411;53.016;18.632;2022-11-21T00:47:10;76.90;;;41.90;;
36379;SDS011;22411;53.016;18.632;2022-11-21T00:49:37;82.03;;;44.03;;
36379;SDS011;22411;53.016;18.632;2022-11-21T00:52:02;88.30;;;43.57;;
36379;SDS011;22411;53.016;18.632;2022-11-21T00:54:28;80.10;;;43.77;;
36379;SDS011;22411;53.016;18.632;2022-11-21T00:56:54;86.73;;;43.53;;
36379;SDS011;22411;53.016;18.632;2022-11-21T00:59:20;82.57;;;42.40;;
36379;SDS011;22411;53.016;18.632;2022-11-21T01:01:46;88.33;;;46.17;;
36379;SDS011;22411;53.016;18.632;2022-11-21T01:04:12;88.07;;;45.63;;
36379;SDS011;22411;53.016;18.632;2022-11-21T01:06:38;95.60;;;47.33;;
36379;SDS011;22411;53.016;18.632;2022-11-21T01:09:04;98.63;;;49.07;;
36379;SDS011;22411;53.016;18.632;2022-11-21T01:11:30;96.23;;;48.33;;
36379;SDS011;22411;53.016;18.632;2022-11-21T01:13:57;97.93;;;49.10;;
36379;SDS011;22411;53.016;18.632;2022-11-21T01:16:23;94.40;;;48.30;;
36379;SDS011;22411;53.016;18.632;2022-11-21T01:18:51;108.37;;;53.00;;
36379;SDS011;22411;53.016;18.632;2022-11-21T01:21:21;96.10;;;50.57;;
36379;SDS011;22411;53.016;18.632;2022-11-21T01:23:49;104.60;;;52.93;;
36379;SDS011;22411;53.016;18.632;2022-11-21T01:26:17;106.00;;;53.60;;
36379;SDS011;22411;53.016;18.632;2022-11-21T01:28:45;103.27;;;52.60;;
36379;SDS011;22411;53.016;18.632;2022-11-21T01:31:12;104.60;;;51.60;;
36379;SDS011;22411;53.016;18.632;2022-11-21T01:33:41;97.50;;;50.23;;
36379;SDS011;22411;53.016;18.632;2022-11-21T01:36:17;105.73;;;53.20;;
36379;SDS011;22411;53.016;18.632;2022-11-21T01:38:46;105.20;;;52.83;;
36379;SDS011;22411;53.016;18.632;2022-11-21T01:41:14;102.43;;;53.00;;
36379;SDS011;22411;53.016;18.632;2022-11-21T01:43:43;100.57;;;50.47;;
36379;SDS011;22411;53.016;18.632;2022-11-21T01:46:10;105.03;;;51.23;;
36379;SDS011;22411;53.016;18.632;2022-11-21T01:53:48;101.20;;;49.17;;
36379;SDS011;22411;53.016;18.632;2022-11-21T01:56:28;95.37;;;46.03;;
36379;SDS011;22411;53.016;18.632;2022-11-21T01:58:58;96.70;;;47.90;;
36379;SDS011;22411;53.016;18.632;2022-11-21T02:01:27;93.27;;;47.90;;
36379;SDS011;22411;53.016;18.632;2022-11-21T02:03:54;92.03;;;47.63;;
36379;SDS011;22411;53.016;18.632;2022-11-21T02:06:22;88.73;;;46.60;;
36379;SDS011;22411;53.016;18.632;2022-11-21T02:08:50;93.67;;;46.87;;
36379;SDS011;22411;53.016;18.632;2022-11-21T02:13:53;89.97;;;46.20;;
36379;SDS011;22411;53.016;18.632;2022-11-21T02:16:20;93.93;;;45.17;;
36379;SDS011;22411;53.016;18.632;2022-11-21T02:18:46;91.30;;;46.40;;
36379;SDS011;22411;53.016;18.632;2022-11-21T02:21:23;89.53;;;44.43;;
36379;SDS011;22411;53.016;18.632;2022-11-21T02:27:22;85.97;;;44.00;;
36379;SDS011;22411;53.016;18.632;2022-11-21T02:29:48;87.93;;;44.03;;
36379;SDS011;22411;53.016;18.632;2022-11-21T02:32:21;87.20;;;45.10;;
36379;SDS011;22411;53.016;18.632;2022-11-21T02:34:48;90.47;;;41.60;;
36379;SDS011;22411;53.016;18.632;2022-11-21T02:37:15;87.37;;;44.53;;
36379;SDS011;22411;53.016;18.632;2022-11-21T02:39:42;91.27;;;42.60;;
36379;SDS011;22411;53.016;18.632;2022-11-21T02:48:06;91.30;;;42.57;;
36379;SDS011;22411;53.016;18.632;2022-11-21T02:50:33;89.93;;;43.27;;
36379;SDS011;22411;53.016;18.632;2022-11-21T02:53:01;88.70;;;44.57;;
36379;SDS011;22411;53.016;18.632;2022-11-21T02:55:28;89.80;;;45.13;;
36379;SDS011;22411;53.016;18.632;2022-11-21T02:57:54;85.67;;;44.37;;
36379;SDS011;22411;53.016;18.632;2022-11-21T03:00:20;92.67;;;44.80;;
36379;SDS011;22411;53.016;18.632;2022-11-21T03:02:46;94.73;;;44.93;;
36379;SDS011;22411;53.016;18.632;2022-11-21T03:05:14;87.50;;;44.13;;
36379;SDS011;22411;53.016;18.632;2022-11-21T03:07:42;94.23;;;44.67;;
36379;SDS011;22411;53.016;18.632;2022-11-21T03:10:09;77.43;;;41.10;;
36379;SDS011;22411;53.016;18.632;2022-11-21T03:12:36;88.27;;;44.90;;
36379;SDS011;22411;53.016;18.632;2022-11-21T03:15:03;89.10;;;43.13;;
36379;SDS011;22411;53.016;18.632;2022-11-21T03:17:30;90.10;;;43.40;;
36379;SDS011;22411;53.016;18.632;2022-11-21T03:19:56;86.17;;;43.10;;
36379;SDS011;22411;53.016;18.632;2022-11-21T03:22:22;90.87;;;44.87;;
36379;SDS011;22411;53.016;18.632;2022-11-21T03:24:49;89.43;;;44.90;;
36379;SDS011;22411;53.016;18.632;2022-11-21T03:27:14;79.60;;;41.93;;
36379;SDS011;22411;53.016;18.632;2022-11-21T03:29:41;85.37;;;44.40;;
36379;SDS011;22411;53.016;18.632;2022-11-21T03:32:06;85.67;;;44.43;;
36379;SDS011;22411;53.016;18.632;2022-11-21T03:34:32;91.67;;;44.03;;
36379;SDS011;22411;53.016;18.632;2022-11-21T03:36:58;88.40;;;42.37;;
36379;SDS011;22411;53.016;18.632;2022-11-21T03:39:24;83.80;;;43.40;;
36379;SDS011;22411;53.016;18.632;2022-11-21T03:41:50;81.70;;;42.37;;
36379;SDS011;22411;53.016;18.632;2022-11-21T03:44:16;86.73;;;41.60;;
36379;SDS011;22411;53.016;18.632;2022-11-21T03:46:44;88.33;;;44.37;;
36379;SDS011;22411;53.016;18.632;2022-11-21T03:49:11;82.03;;;43.00;;
36379;SDS011;22411;53.016;18.632;2022-11-21T03:51:38;89.33;;;43.93;;
36379;SDS011;22411;53.016;18.632;2022-11-21T03:54:05;85.37;;;41.90;;
36379;SDS011;22411;53.016;18.632;2022-11-21T03:56:31;87.97;;;44.27;;
36379;SDS011;22411;53.016;18.632;2022-11-21T03:58:58;91.57;;;43.93;;
36379;SDS011;22411;53.016;18.632;2022-11-21T04:01:24;89.60;;;44.10;;
36379;SDS011;22411;53.016;18.632;2022-11-21T04:03:51;80.30;;;42.70;;
36379;SDS011;22411;53.016;18.632;2022-11-21T04:06:18;87.83;;;43.63;;
36379;SDS011;22411;53.016;18.632;2022-11-21T04:08:45;87.30;;;44.27;;
36379;SDS011;22411;53.016;18.632;2022-11-21T04:11:12;90.83;;;42.10;;
36379;SDS011;22411;53.016;18.632;2022-11-21T04:13:38;83.90;;;41.90;;
36379;SDS011;22411;53.016;18.632;2022-11-21T04:16:04;83.33;;;41.30;;
36379;SDS011;22411;53.016;18.632;2022-11-21T04:18:30;79.13;;;42.13;;
36379;SDS011;22411;53.016;18.632;2022-11-21T04:20:58;85.43;;;42.87;;
36379;SDS011;22411;53.016;18.632;2022-11-21T04:23:25;88.30;;;44.07;;
36379;SDS011;22411;53.016;18.632;2022-11-21T04:25:52;85.77;;;41.93;;
36379;SDS011;22411;53.016;18.632;2022-11-21T04:28:18;83.97;;;42.97;;
36379;SDS011;22411;53.016;18.632;2022-11-21T04:30:44;87.13;;;43.33;;
36379;SDS011;22411;53.016;18.632;2022-11-21T04:33:11;83.13;;;40.53;;
36379;SDS011;22411;53.016;18.632;2022-11-21T04:35:38;88.27;;;41.93;;
36379;SDS011;22411;53.016;18.632;2022-11-21T04:38:04;87.13;;;46.40;;
36379;SDS011;22411;53.016;18.632;2022-11-21T04:40:30;79.63;;;42.27;;
36379;SDS011;22411;53.016;18.632;2022-11-21T04:42:56;86.97;;;44.13;;
36379;SDS011;22411;53.016;18.632;2022-11-21T04:45:22;84.13;;;41.90;;
36379;SDS011;22411;53.016;18.632;2022-11-21T04:47:48;82.10;;;43.37;;
36379;SDS011;22411;53.016;18.632;2022-11-21T04:50:15;88.20;;;42.63;;
36379;SDS011;22411;53.016;18.632;2022-11-21T04:52:52;86.60;;;44.83;;
36379;SDS011;22411;53.016;18.632;2022-11-21T04:55:21;90.57;;;44.67;;
36379;SDS011;22411;53.016;18.632;2022-11-21T04:57:49;90.80;;;44.40;;
36379;SDS011;22411;53.016;18.632;2022-11-21T05:00:15;86.47;;;45.20;;
36379;SDS011;22411;53.016;18.632;2022-11-21T05:02:42;90.60;;;45.33;;
36379;SDS011;22411;53.016;18.632;2022-11-21T05:05:08;94.90;;;45.47;;
36379;SDS011;22411;53.016;18.632;2022-11-21T05:07:35;88.00;;;43.90;;
36379;SDS011;22411;53.016;18.632;2022-11-21T05:10:01;93.60;;;46.50;;
36379;SDS011;22411;53.016;18.632;2022-11-21T05:12:28;89.50;;;44.87;;
36379;SDS011;22411;53.016;18.632;2022-11-21T05:15:12;92.53;;;45.10;;
36379;SDS011;22411;53.016;18.632;2022-11-21T05:17:38;81.93;;;43.97;;
36379;SDS011;22411;53.016;18.632;2022-11-21T05:20:04;92.37;;;47.63;;
36379;SDS011;22411;53.016;18.632;2022-11-21T05:22:31;89.03;;;46.33;;
36379;SDS011;22411;53.016;18.632;2022-11-21T05:24:57;83.63;;;42.17;;
36379;SDS011;22411;53.016;18.632;2022-11-21T05:27:23;86.57;;;44.07;;
36379;SDS011;22411;53.016;18.632;2022-11-21T05:29:49;80.57;;;44.03;;
36379;SDS011;22411;53.016;18.632;2022-11-21T05:32:15;80.33;;;41.63;;
36379;SDS011;22411;53.016;18.632;2022-11-21T05:34:40;79.70;;;40.67;;
36379;SDS011;22411;53.016;18.632;2022-11-21T05:37:07;83.27;;;41.00;;
36379;SDS011;22411;53.016;18.632;2022-11-21T05:39:33;80.53;;;42.47;;
36379;SDS011;22411;53.016;18.632;2022-11-21T05:41:59;81.83;;;43.60;;
36379;SDS011;22411;53.016;18.632;2022-11-21T05:44:25;85.10;;;45.23;;
36379;SDS011;22411;53.016;18.632;2022-11-21T05:46:52;79.37;;;42.10;;
36379;SDS011;22411;53.016;18.632;2022-11-21T05:49:18;84.00;;;43.80;;
36379;SDS011;22411;53.016;18.632;2022-11-21T05:51:44;82.73;;;42.60;;
36379;SDS011;22411;53.016;18.632;2022-11-21T05:54:13;85.47;;;43.07;;
36379;SDS011;22411;53.016;18.632;2022-11-21T05:56:40;75.37;;;41.57;;
36379;SDS011;22411;53.016;18.632;2022-11-21T05:59:07;77.97;;;41.30;;
36379;SDS011;22411;53.016;18.632;2022-11-21T06:01:35;83.80;;;41.17;;
36379;SDS011;22411;53.016;18.632;2022-11-21T06:04:19;85.80;;;44.07;;
36379;SDS011;22411;53.016;18.632;2022-11-21T06:06:46;84.00;;;40.20;;
36379;SDS011;22411;53.016;18.632;2022-11-21T06:09:12;79.90;;;41.40;;
36379;SDS011;22411;53.016;18.632;2022-11-21T06:11:38;84.07;;;41.77;;
36379;SDS011;22411;53.016;18.632;2022-11-21T06:14:03;85.70;;;40.40;;
36379;SDS011;22411;53.016;18.632;2022-11-21T06:16:30;79.57;;;42.67;;
36379;SDS011;22411;53.016;18.632;2022-11-21T06:18:55;78.90;;;41.77;;
36379;SDS011;22411;53.016;18.632;2022-11-21T06:21:23;78.63;;;42.27;;
36379;SDS011;22411;53.016;18.632;2022-11-21T06:23:50;84.30;;;41.90;;
36379;SDS011;22411;53.016;18.632;2022-11-21T06:26:19;80.93;;;42.67;;
36379;SDS011;22411;53.016;18.632;2022-11-21T06:28:46;85.73;;;41.67;;
36379;SDS011;22411;53.016;18.632;2022-11-21T06:31:23;84.53;;;45.13;;
36379;SDS011;22411;53.016;18.632;2022-11-21T06:33:51;90.17;;;47.03;;
36379;SDS011;22411;53.016;18.632;2022-11-21T06:36:19;83.50;;;42.40;;
36379;SDS011;22411;53.016;18.632;2022-11-21T06:38:45;85.87;;;45.63;;
36379;SDS011;22411;53.016;18.632;2022-11-21T06:41:14;77.17;;;40.10;;
36379;SDS011;22411;53.016;18.632;2022-11-21T06:43:42;88.27;;;44.17;;
36379;SDS011;22411;53.016;18.632;2022-11-21T06:46:12;81.93;;;41.67;;
36379;SDS011;22411;53.016;18.632;2022-11-21T06:48:39;80.13;;;44.27;;
36379;SDS011;22411;53.016;18.632;2022-11-21T06:51:07;82.63;;;40.67;;
36379;SDS011;22411;53.016;18.632;2022-11-21T06:53:34;85.10;;;44.60;;
36379;SDS011;22411;53.016;18.632;2022-11-21T06:56:02;82.83;;;41.87;;
36379;SDS011;22411;53.016;18.632;2022-11-21T06:58:31;85.70;;;44.73;;
36379;SDS011;22411;53.016;18.632;2022-11-21T07:01:05;83.10;;;43.63;;
36379;SDS011;22411;53.016;18.632;2022-11-21T07:05:59;83.13;;;44.87;;
36379;SDS011;22411;53.016;18.632;2022-11-21T07:08:27;93.07;;;46.17;;
36379;SDS011;22411;53.016;18.632;2022-11-21T07:10:54;83.67;;;43.80;;
36379;SDS011;22411;53.016;18.632;2022-11-21T07:13:20;95.67;;;47.73;;
36379;SDS011;22411;53.016;18.632;2022-11-21T07:15:50;88.73;;;47.37;;
36379;SDS011;22411;53.016;18.632;2022-11-21T07:18:18;87.00;;;46.03;;
36379;SDS011;22411;53.016;18.632;2022-11-21T07:20:45;90.70;;;45.40;;
36379;SDS011;22411;53.016;18.632;2022-11-21T07:23:11;88.97;;;46.80;;
36379;SDS011;22411;53.016;18.632;2022-11-21T07:25:37;93.90;;;46.40;;
36379;SDS011;22411;53.016;18.632;2022-11-21T07:28:06;85.07;;;46.30;;
36379;SDS011;22411;53.016;18.632;2022-11-21T07:30:34;85.00;;;47.10;;
36379;SDS011;22411;53.016;18.632;2022-11-21T07:33:02;83.83;;;46.27;;
36379;SDS011;22411;53.016;18.632;2022-11-21T07:35:30;95.87;;;50.43;;
36379;SDS011;22411;53.016;18.632;2022-11-21T07:37:57;94.60;;;48.93;;
36379;SDS011;22411;53.016;18.632;2022-11-21T07:40:24;96.70;;;48.47;;
36379;SDS011;22411;53.016;18.632;2022-11-21T07:42:50;104.00;;;51.77;;
36379;SDS011;22411;53.016;18.632;2022-11-21T07:45:16;93.63;;;50.27;;
36379;SDS011;22411;53.016;18.632;2022-11-21T07:47:42;108.10;;;52.17;;
36379;SDS011;22411;53.016;18.632;2022-11-21T07:50:09;96.63;;;50.40;;
36379;SDS011;22411;53.016;18.632;2022-11-21T07:52:36;98.43;;;51.30;;
36379;SDS011;22411;53.016;18.632;2022-11-21T07:55:03;91.53;;;50.03;;
36379;SDS011;22411;53.016;18.632;2022-11-21T07:57:30;99.20;;;50.77;;
36379;SDS011;22411;53.016;18.632;2022-11-21T07:59:57;95.73;;;50.13;;
36379;SDS011;22411;53.016;18.632;2022-11-21T08:02:24;97.60;;;50.33;;
36379;SDS011;22411;53.016;18.632;2022-11-21T08:04:52;107.33;;;52.40;;
36379;SDS011;22411;53.016;18.632;2022-11-21T08:07:19;97.77;;;52.30;;
36379;SDS011;22411;53.016;18.632;2022-11-21T08:09:46;101.57;;;53.77;;
36379;SDS011;22411;53.016;18.632;2022-11-21T08:12:12;103.30;;;55.23;;
36379;SDS011;22411;53.016;18.632;2022-11-21T08:14:39;111.03;;;58.97;;
36379;SDS011;22411;53.016;18.632;2022-11-21T08:17:05;109.70;;;63.80;;
36379;SDS011;22411;53.016;18.632;2022-11-21T08:19:32;106.70;;;63.97;;
36379;SDS011;22411;53.016;18.632;2022-11-21T08:21:58;110.27;;;63.50;;
36379;SDS011;22411;53.016;18.632;2022-11-21T08:24:25;93.07;;;52.57;;
36379;SDS011;22411;53.016;18.632;2022-11-21T08:26:51;101.53;;;53.73;;
36379;SDS011;22411;53.016;18.632;2022-11-21T08:29:17;109.27;;;63.97;;
36379;SDS011;22411;53.016;18.632;2022-11-21T08:31:43;92.13;;;51.27;;
36379;SDS011;22411;53.016;18.632;2022-11-21T08:34:10;94.63;;;49.20;;
36379;SDS011;22411;53.016;18.632;2022-11-21T08:36:36;96.33;;;52.17;;
36379;SDS011;22411;53.016;18.632;2022-11-21T08:39:03;93.60;;;48.60;;
36379;SDS011;22411;53.016;18.632;2022-11-21T08:41:29;93.87;;;51.00;;
36379;SDS011;22411;53.016;18.632;2022-11-21T08:44:14;96.47;;;53.43;;
36379;SDS011;22411;53.016;18.632;2022-11-21T08:46:40;98.90;;;52.47;;
36379;SDS011;22411;53.016;18.632;2022-11-21T08:49:06;93.40;;;54.67;;
36379;SDS011;22411;53.016;18.632;2022-11-21T08:51:33;96.80;;;57.57;;
36379;SDS011;22411;53.016;18.632;2022-11-21T08:54:00;94.37;;;49.23;;
36379;SDS011;22411;53.016;18.632;2022-11-21T08:56:27;87.50;;;45.20;;
36379;SDS011;22411;53.016;18.632;2022-11-21T08:58:53;98.03;;;54.50;;
36379;SDS011;22411;53.016;18.632;2022-11-21T09:01:20;88.47;;;50.03;;
36379;SDS011;22411;53.016;18.632;2022-11-21T09:03:47;83.77;;;46.57;;
36379;SDS011;22411;53.016;18.632;2022-11-21T09:06:13;95.87;;;55.03;;
36379;SDS011;22411;53.016;18.632;2022-11-21T09:08:39;92.30;;;55.90;;
36379;SDS011;22411;53.016;18.632;2022-11-21T09:11:05;163.70;;;92.77;;
36379;SDS011;22411;53.016;18.632;2022-11-21T09:13:33;97.20;;;57.07;;
36379;SDS011;22411;53.016;18.632;2022-11-21T09:16:00;90.77;;;52.73;;
36379;SDS011;22411;53.016;18.632;2022-11-21T09:18:45;77.43;;;46.37;;
36379;SDS011;22411;53.016;18.632;2022-11-21T09:21:27;82.63;;;45.10;;
36379;SDS011;22411;53.016;18.632;2022-11-21T09:26:19;84.20;;;47.20;;
36379;SDS011;22411;53.016;18.632;2022-11-21T09:28:45;89.80;;;49.43;;
36379;SDS011;22411;53.016;18.632;2022-11-21T09:31:11;107.73;;;62.77;;
36379;SDS011;22411;53.016;18.632;2022-11-21T09:33:37;85.87;;;44.77;;
36379;SDS011;22411;53.016;18.632;2022-11-21T09:36:03;74.17;;;43.57;;
36379;SDS011;22411;53.016;18.632;2022-11-21T09:38:29;97.30;;;57.43;;
36379;SDS011;22411;53.016;18.632;2022-11-21T09:40:58;89.63;;;52.93;;
36379;SDS011;22411;53.016;18.632;2022-11-21T09:44:04;102.57;;;64.10;;
36379;SDS011;22411;53.016;18.632;2022-11-21T09:46:43;90.13;;;48.57;;
36379;SDS011;22411;53.016;18.632;2022-11-21T09:49:12;112.03;;;71.33;;
36379;SDS011;22411;53.016;18.632;2022-11-21T09:51:41;91.60;;;57.13;;
36379;SDS011;22411;53.016;18.632;2022-11-21T09:54:17;82.73;;;47.77;;
36379;SDS011;22411;53.016;18.632;2022-11-21T09:56:47;95.17;;;55.37;;
36379;SDS011;22411;53.016;18.632;2022-11-21T10:02:00;97.43;;;53.17;;
36379;SDS011;22411;53.016;18.632;2022-11-21T10:04:27;95.00;;;56.03;;
36379;SDS011;22411;53.016;18.632;2022-11-21T10:07:01;97.50;;;55.50;;
36379;SDS011;22411;53.016;18.632;2022-11-21T10:25:38;66.27;;;36.60;;
36379;SDS011;22411;53.016;18.632;2022-11-21T10:30:50;68.47;;;36.50;;
36379;SDS011;22411;53.016;18.632;2022-11-21T10:33:20;68.23;;;38.30;;
36379;SDS011;22411;53.016;18.632;2022-11-21T10:35:56;70.27;;;38.27;;
36379;SDS011;22411;53.016;18.632;2022-11-21T10:38:26;93.28;;;46.95;;
36379;SDS011;22411;53.016;18.632;2022-11-21T10:46:56;76.63;;;41.42;;
36379;SDS011;22411;53.016;18.632;2022-11-21T10:49:24;82.50;;;41.87;;
36379;SDS011;22411;53.016;18.632;2022-11-21T10:51:56;80.73;;;43.80;;
36379;SDS011;22411;53.016;18.632;2022-11-21T10:55:01;71.47;;;38.97;;
36379;SDS011;22411;53.016;18.632;2022-11-21T10:57:32;69.03;;;38.40;;
36379;SDS011;22411;53.016;18.632;2022-11-21T11:02:37;83.07;;;45.30;;
36379;SDS011;22411;53.016;18.632;2022-11-21T11:08:06;84.50;;;45.93;;
36379;SDS011;22411;53.016;18.632;2022-11-21T11:10:35;80.70;;;45.00;;
36379;SDS011;22411;53.016;18.632;2022-11-21T11:13:21;74.67;;;42.27;;
36379;SDS011;22411;53.016;18.632;2022-11-21T11:16:13;75.20;;;44.37;;
36379;SDS011;22411;53.016;18.632;2022-11-21T11:21:28;100.50;;;55.83;;
36379;SDS011;22411;53.016;18.632;2022-11-21T11:26:34;81.00;;;43.90;;
36379;SDS011;22411;53.016;18.632;2022-11-21T11:29:12;81.93;;;45.63;;
36379;SDS011;22411;53.016;18.632;2022-11-21T11:32:00;84.53;;;46.30;;
36379;SDS011;22411;53.016;18.632;2022-11-21T11:34:40;91.40;;;49.77;;
36379;SDS011;22411;53.016;18.632;2022-11-21T11:37:20;78.50;;;41.70;;
36379;SDS011;22411;53.016;18.632;2022-11-21T11:40:01;80.30;;;43.93;;
36379;SDS011;22411;53.016;18.632;2022-11-21T11:42:47;83.63;;;48.77;;
36379;SDS011;22411;53.016;18.632;2022-11-21T11:48:41;79.80;;;44.63;;
36379;SDS011;22411;53.016;18.632;2022-11-21T11:51:17;84.97;;;44.37;;
36379;SDS011;22411;53.016;18.632;2022-11-21T11:54:01;85.90;;;44.37;;
36379;SDS011;22411;53.016;18.632;2022-11-21T11:56:38;78.53;;;44.27;;
36379;SDS011;22411;53.016;18.632;2022-11-21T12:01:56;80.53;;;44.28;;
36379;SDS011;22411;53.016;18.632;2022-11-21T12:04:28;77.23;;;42.90;;
36379;SDS011;22411;53.016;18.632;2022-11-21T12:07:05;85.53;;;49.90;;
36379;SDS011;22411;53.016;18.632;2022-11-21T12:09:49;122.77;;;66.93;;
36379;SDS011;22411;53.016;18.632;2022-11-21T12:12:22;112.90;;;69.70;;
36379;SDS011;22411;53.016;18.632;2022-11-21T12:31:49;87.60;;;51.87;;
36379;SDS011;22411;53.016;18.632;2022-11-21T12:48:02;96.13;;;52.33;;
36379;SDS011;22411;53.016;18.632;2022-11-21T12:51:33;121.28;;;63.42;;
36379;SDS011;22411;53.016;18.632;2022-11-21T12:57:03;101.47;;;55.07;;
36379;SDS011;22411;53.016;18.632;2022-11-21T12:59:45;103.03;;;54.53;;
36379;SDS011;22411;53.016;18.632;2022-11-21T13:05:40;96.93;;;52.63;;
36379;SDS011;22411;53.016;18.632;2022-11-21T13:08:12;104.30;;;57.27;;
36379;SDS011;22411;53.016;18.632;2022-11-21T13:10:45;110.03;;;58.40;;
36379;SDS011;22411;53.016;18.632;2022-11-21T13:13:49;110.53;;;58.50;;
36379;SDS011;22411;53.016;18.632;2022-11-21T13:16:27;112.20;;;62.13;;
36379;SDS011;22411;53.016;18.632;2022-11-21T13:19:07;112.40;;;63.57;;
36379;SDS011;22411;53.016;18.632;2022-11-21T13:21:58;103.90;;;59.07;;
36379;SDS011;22411;53.016;18.632;2022-11-21T13:27:10;98.03;;;56.83;;
36379;SDS011;22411;53.016;18.632;2022-11-21T13:45:50;112.60;;;59.63;;
36379;SDS011;22411;53.016;18.632;2022-11-21T13:50:53;101.67;;;58.03;;
36379;SDS011;22411;53.016;18.632;2022-11-21T14:05:01;112.27;;;58.03;;
36379;SDS011;22411;53.016;18.632;2022-11-21T14:07:43;111.10;;;60.07;;
36379;SDS011;22411;53.016;18.632;2022-11-21T14:12:58;100.90;;;54.10;;
36379;SDS011;22411;53.016;18.632;2022-11-21T14:15:31;108.50;;;58.53;;
36379;SDS011;22411;53.016;18.632;2022-11-21T14:18:12;104.47;;;58.67;;
36379;SDS011;22411;53.016;18.632;2022-11-21T14:20:51;107.77;;;58.03;;
36379;SDS011;22411;53.016;18.632;2022-11-21T14:23:22;107.57;;;56.47;;
36379;SDS011;22411;53.016;18.632;2022-11-21T14:25:53;106.77;;;57.00;;
36379;SDS011;22411;53.016;18.632;2022-11-21T14:30:50;111.33;;;59.77;;
36379;SDS011;22411;53.016;18.632;2022-11-21T14:33:29;108.53;;;57.77;;
36379;SDS011;22411;53.016;18.632;2022-11-21T14:36:00;103.57;;;56.03;;
36379;SDS011;22411;53.016;18.632;2022-11-21T14:46:23;115.93;;;67.10;;
36379;SDS011;22411;53.016;18.632;2022-11-21T14:48:55;109.03;;;62.88;;
36379;SDS011;22411;53.016;18.632;2022-11-21T14:51:34;113.60;;;60.23;;
36379;SDS011;22411;53.016;18.632;2022-11-21T14:54:01;107.37;;;59.73;;
36379;SDS011;22411;53.016;18.632;2022-11-21T14:56:29;100.40;;;56.30;;
36379;SDS011;22411;53.016;18.632;2022-11-21T14:58:57;107.33;;;56.83;;
36379;SDS011;22411;53.016;18.632;2022-11-21T15:01:27;101.30;;;57.63;;
36379;SDS011;22411;53.016;18.632;2022-11-21T15:03:59;96.07;;;55.03;;
36379;SDS011;22411;53.016;18.632;2022-11-21T15:06:27;106.70;;;61.20;;
36379;SDS011;22411;53.016;18.632;2022-11-21T15:08:58;101.97;;;54.72;;
36379;SDS011;22411;53.016;18.632;2022-11-21T15:11:47;109.60;;;58.93;;
36379;SDS011;22411;53.016;18.632;2022-11-21T15:17:07;104.07;;;57.73;;
36379;SDS011;22411;53.016;18.632;2022-11-21T15:19:38;123.07;;;67.43;;
36379;SDS011;22411;53.016;18.632;2022-11-21T15:22:15;108.67;;;62.00;;
36379;SDS011;22411;53.016;18.632;2022-11-21T15:24:48;116.33;;;66.80;;
36379;SDS011;22411;53.016;18.632;2022-11-21T15:27:32;113.53;;;65.47;;
36379;SDS011;22411;53.016;18.632;2022-11-21T15:30:04;108.30;;;59.03;;
36379;SDS011;22411;53.016;18.632;2022-11-21T15:32:58;103.53;;;60.23;;
36379;SDS011;22411;53.016;18.632;2022-11-21T15:35:56;109.30;;;61.07;;
36379;SDS011;22411;53.016;18.632;2022-11-21T15:46:30;134.70;;;78.03;;
36379;SDS011;22411;53.016;18.632;2022-11-21T15:49:07;127.23;;;72.27;;
36379;SDS011;22411;53.016;18.632;2022-11-21T15:51:41;104.57;;;58.13;;
36379;SDS011;22411;53.016;18.632;2022-11-21T15:54:13;103.97;;;57.07;;
36379;SDS011;22411;53.016;18.632;2022-11-21T15:56:40;144.73;;;81.17;;
36379;SDS011;22411;53.016;18.632;2022-11-21T15:59:07;154.47;;;84.13;;
36379;SDS011;22411;53.016;18.632;2022-11-21T16:01:33;189.43;;;98.27;;
36379;SDS011;22411;53.016;18.632;2022-11-21T16:04:04;183.40;;;91.20;;
36379;SDS011;22411;53.016;18.632;2022-11-21T16:06:31;275.83;;;126.33;;
36379;SDS011;22411;53.016;18.632;2022-11-21T16:08:58;238.70;;;113.47;;
36379;SDS011;22411;53.016;18.632;2022-11-21T16:11:26;179.93;;;88.93;;
36379;SDS011;22411;53.016;18.632;2022-11-21T16:13:55;173.10;;;85.40;;
36379;SDS011;22411;53.016;18.632;2022-11-21T16:16:27;153.17;;;80.07;;
36379;SDS011;22411;53.016;18.632;2022-11-21T16:18:54;120.40;;;66.07;;
36379;SDS011;22411;53.016;18.632;2022-11-21T16:21:24;109.80;;;60.27;;
36379;SDS011;22411;53.016;18.632;2022-11-21T16:23:51;119.50;;;63.47;;
36379;SDS011;22411;53.016;18.632;2022-11-21T16:26:19;114.37;;;63.37;;
36379;SDS011;22411;53.016;18.632;2022-11-21T16:28:45;139.77;;;69.20;;
36379;SDS011;22411;53.016;18.632;2022-11-21T16:31:21;122.33;;;65.23;;
36379;SDS011;22411;53.016;18.632;2022-11-21T16:33:52;117.20;;;65.80;;
36379;SDS011;22411;53.016;18.632;2022-11-21T16:38:50;130.90;;;69.43;;
36379;SDS011;22411;53.016;18.632;2022-11-21T16:41:17;117.80;;;66.53;;
36379;SDS011;22411;53.016;18.632;2022-11-21T16:43:48;110.47;;;60.07;;
36379;SDS011;22411;53.016;18.632;2022-11-21T16:46:20;120.27;;;62.30;;
36379;SDS011;22411;53.016;18.632;2022-11-21T16:49:02;115.20;;;61.20;;
36379;SDS011;22411;53.016;18.632;2022-11-21T16:51:52;114.20;;;63.57;;
36379;SDS011;22411;53.016;18.632;2022-11-21T16:54:21;115.80;;;61.80;;
36379;SDS011;22411;53.016;18.632;2022-11-21T16:57:10;106.80;;;61.83;;
36379;SDS011;22411;53.016;18.632;2022-11-21T16:59:39;112.17;;;67.27;;
36379;SDS011;22411;53.016;18.632;2022-11-21T17:02:19;113.27;;;65.57;;
36379;SDS011;22411;53.016;18.632;2022-11-21T17:05:00;111.87;;;62.13;;